Time;durP1;ratioP1;P1;durP2;ratioP2;P2;SDS_P1;SDS_P2;PMS_P1;PMS_P2;Temp;Humidity;BMP_temperature;BMP_pressure;BME280_temperature;BME280_humidity;BME280_pressure;Samples;Min_cycle;Max_cycle;Signal;HPM_P1;HPM_P2
2022/02/09 00:01:10;;;;;;;20.77;13.03;;;;;;;;;;6337715;22;20176;-84
2022/02/09 00:03:39;;;;;;;22.80;12.87;;;;;;;;;;6338013;22;20177;-84
2022/02/09 00:06:11;;;;;;;21.27;13.13;;;;;;;;;;6338813;22;20275;-84
2022/02/09 00:08:39;;;;;;;24.43;13.43;;;;;;;;;;6338813;22;20225;-84
2022/02/09 00:11:08;;;;;;;20.97;13.53;;;;;;;;;;6338184;22;20662;-84
2022/02/09 00:13:51;;;;;;;22.53;12.83;;;;;;;;;;6338258;22;20173;-84
2022/02/09 00:16:41;;;;;;;24.17;14.10;;;;;;;;;;6337993;22;20516;-84
2022/02/09 00:19:15;;;;;;;25.40;13.73;;;;;;;;;;6338478;22;20172;-84
2022/02/09 00:22:03;;;;;;;24.93;14.67;;;;;;;;;;6338363;22;20180;-84
2022/02/09 00:27:39;;;;;;;24.97;14.13;;;;;;;;;;6333635;22;20230;-84
2022/02/09 00:33:13;;;;;;;28.07;15.20;;;;;;;;;;6272970;22;21128;-84
2022/02/09 00:36:13;;;;;;;24.97;15.33;;;;;;;;;;6272914;22;20173;-84
2022/02/09 00:39:08;;;;;;;29.90;16.50;;;;;;;;;;6273106;22;20185;-84
2022/02/09 00:41:48;;;;;;;29.67;16.47;;;;;;;;;;6273843;22;20324;-84
2022/02/09 01:39:48;;;;;;;29.90;17.57;;;;;;;;;;5951758;24;20181;-84
2022/02/09 01:56:02;;;;;;;26.47;15.03;;;;;;;;;;6064266;23;20226;-85
2022/02/09 01:58:31;;;;;;;26.53;15.17;;;;;;;;;;6064189;23;20182;-84
2022/02/09 02:01:00;;;;;;;23.27;14.13;;;;;;;;;;6064620;23;20583;-84
2022/02/09 02:03:27;;;;;;;26.67;14.90;;;;;;;;;;6155567;23;20213;-84
2022/02/09 02:05:55;;;;;;;31.50;15.00;;;;;;;;;;6181899;23;20239;-84
2022/02/09 02:08:23;;;;;;;25.03;14.97;;;;;;;;;;6181585;23;20572;-84
2022/02/09 02:11:00;;;;;;;29.00;15.50;;;;;;;;;;6181214;23;20173;-84
2022/02/09 02:13:38;;;;;;;27.33;15.20;;;;;;;;;;6260817;22;20177;-84
2022/02/09 02:16:20;;;;;;;29.43;15.73;;;;;;;;;;6337587;22;20199;-84
2022/02/09 02:18:51;;;;;;;26.70;14.90;;;;;;;;;;6338150;22;20169;-84
2022/02/09 02:21:26;;;;;;;27.60;15.03;;;;;;;;;;6339650;22;20242;-84
2022/02/09 02:24:23;;;;;;;26.33;15.00;;;;;;;;;;6338960;22;20200;-84
2022/02/09 02:29:56;;;;;;;30.13;16.37;;;;;;;;;;6338696;22;20176;-84
2022/02/09 02:35:51;;;;;;;25.80;15.23;;;;;;;;;;6244265;23;20562;-84
2022/02/09 02:58:11;;;;;;;25.90;15.00;;;;;;;;;;6243280;23;20174;-84
2022/02/09 03:09:11;;;;;;;27.47;14.90;;;;;;;;;;6242951;23;20174;-84
2022/02/09 03:12:02;;;;;;;26.20;14.63;;;;;;;;;;6285445;22;20179;-84
2022/02/09 03:14:38;;;;;;;25.10;14.37;;;;;;;;;;6339170;22;20637;-84
2022/02/09 03:17:10;;;;;;;30.00;14.93;;;;;;;;;;6338508;22;20229;-84
2022/02/09 03:19:50;;;;;;;27.23;15.23;;;;;;;;;;6338480;22;20491;-84
2022/02/09 03:22:23;;;;;;;30.67;15.37;;;;;;;;;;6338890;22;20161;-84
2022/02/09 03:25:23;;;;;;;26.40;14.53;;;;;;;;;;6338018;22;20171;-84
2022/02/09 03:47:22;;;;;;;20.40;12.67;;;;;;;;;;6332118;22;20254;-84
2022/02/09 03:55:17;;;;;;;25.37;13.47;;;;;;;;;;6338195;22;20219;-84
2022/02/09 03:57:46;;;;;;;25.47;14.37;;;;;;;;;;6338649;22;20169;-84
2022/02/09 04:00:13;;;;;;;27.70;14.57;;;;;;;;;;6338540;22;20222;-84
2022/02/09 04:02:45;;;;;;;25.20;13.87;;;;;;;;;;6338849;22;20173;-84
2022/02/09 04:05:13;;;;;;;24.37;13.30;;;;;;;;;;6337922;22;20193;-84
2022/02/09 04:07:40;;;;;;;24.47;13.30;;;;;;;;;;6338066;22;20200;-84
2022/02/09 04:10:11;;;;;;;25.10;13.53;;;;;;;;;;6338506;22;20193;-84
2022/02/09 04:12:45;;;;;;;22.23;12.73;;;;;;;;;;6338133;22;20177;-84
2022/02/09 04:15:23;;;;;;;25.33;13.97;;;;;;;;;;6338387;22;20169;-85
2022/02/09 04:18:07;;;;;;;26.17;13.43;;;;;;;;;;6338232;22;20542;-85
2022/02/09 04:22:31;;;;;;;25.30;13.13;;;;;;;;;;6338033;22;20175;-84
2022/02/09 04:37:28;;;;;;;27.73;14.40;;;;;;;;;;6337660;22;20222;-84
2022/02/09 04:40:04;;;;;;;29.73;14.07;;;;;;;;;;6338478;22;20173;-84
2022/02/09 04:43:02;;;;;;;25.17;13.73;;;;;;;;;;6338004;22;20185;-84
2022/02/09 04:45:45;;;;;;;28.13;13.60;;;;;;;;;;6337684;22;20193;-84
2022/02/09 04:48:40;;;;;;;25.47;12.50;;;;;;;;;;6338202;22;20172;-84
2022/02/09 04:51:18;;;;;;;25.77;13.07;;;;;;;;;;6337578;22;20173;-84
2022/02/09 04:56:42;;;;;;;24.00;12.57;;;;;;;;;;6338012;22;20222;-84
2022/02/09 04:59:16;;;;;;;26.80;12.63;;;;;;;;;;6337761;22;20255;-84
2022/02/09 05:02:10;;;;;;;23.57;13.10;;;;;;;;;;6337805;22;20175;-84
2022/02/09 05:04:58;;;;;;;23.97;12.47;;;;;;;;;;6337711;22;20204;-84
2022/02/09 05:19:11;;;;;;;25.80;12.57;;;;;;;;;;6281313;22;20634;-84
2022/02/09 05:21:58;;;;;;;20.23;11.77;;;;;;;;;;6337277;22;20180;-84
2022/02/09 05:24:41;;;;;;;21.97;12.27;;;;;;;;;;6337575;22;20209;-84
2022/02/09 05:27:18;;;;;;;19.93;12.07;;;;;;;;;;6337353;22;20271;-84
2022/02/09 05:29:45;;;;;;;26.57;12.37;;;;;;;;;;6338016;22;20267;-84
2022/02/09 05:32:13;;;;;;;24.23;12.33;;;;;;;;;;6337804;22;20166;-84
2022/02/09 05:34:40;;;;;;;21.20;12.13;;;;;;;;;;6337289;22;20165;-84
2022/02/09 05:37:07;;;;;;;19.67;11.67;;;;;;;;;;6337832;22;20197;-84
2022/02/09 05:39:36;;;;;;;26.17;12.00;;;;;;;;;;6337785;22;20190;-84
2022/02/09 05:42:07;;;;;;;25.53;12.30;;;;;;;;;;6337956;22;20170;-84
2022/02/09 05:44:35;;;;;;;22.73;12.47;;;;;;;;;;6337666;22;20236;-84
2022/02/09 05:47:46;;;;;;;23.03;12.23;;;;;;;;;;6337374;22;20216;-84
2022/02/09 05:50:07;;;;;;;25.17;12.97;;;;;;;;;;6337465;22;20175;-84
2022/02/09 05:52:54;;;;;;;23.63;12.77;;;;;;;;;;6337551;22;20180;-84
2022/02/09 05:55:43;;;;;;;22.93;12.67;;;;;;;;;;6339598;22;20540;-84
2022/02/09 05:58:14;;;;;;;22.20;11.93;;;;;;;;;;6339624;22;20161;-84
2022/02/09 06:00:47;;;;;;;22.03;11.83;;;;;;;;;;6339223;22;20541;-84
2022/02/09 06:03:14;;;;;;;27.23;12.40;;;;;;;;;;6339775;22;20169;-84
2022/02/09 06:05:41;;;;;;;23.80;12.10;;;;;;;;;;6339009;22;20215;-84
2022/02/09 06:08:08;;;;;;;23.33;12.23;;;;;;;;;;6339160;22;20165;-84
2022/02/09 06:10:39;;;;;;;24.30;11.97;;;;;;;;;;6339377;22;20181;-84
2022/02/09 06:13:21;;;;;;;26.17;12.90;;;;;;;;;;6338729;22;20561;-84
2022/02/09 06:21:18;;;;;;;23.50;12.10;;;;;;;;;;6338965;22;20172;-84
2022/02/09 06:23:46;;;;;;;22.67;12.67;;;;;;;;;;6338820;22;20193;-84
2022/02/09 06:26:14;;;;;;;26.50;11.97;;;;;;;;;;6338937;22;20193;-84
2022/02/09 06:28:42;;;;;;;22.60;11.63;;;;;;;;;;6339280;22;20645;-84
2022/02/09 06:31:09;;;;;;;24.10;11.60;;;;;;;;;;6338457;22;20200;-84
2022/02/09 06:33:36;;;;;;;23.77;11.63;;;;;;;;;;6339159;22;20173;-84
2022/02/09 06:36:06;;;;;;;19.70;11.87;;;;;;;;;;6338665;22;20169;-84
2022/02/09 06:38:38;;;;;;;23.13;10.83;;;;;;;;;;6339131;22;20173;-84
2022/02/09 06:41:06;;;;;;;23.93;11.53;;;;;;;;;;6338824;22;20627;-84
2022/02/09 06:43:35;;;;;;;18.47;10.70;;;;;;;;;;6339013;22;20241;-84
2022/02/09 06:46:02;;;;;;;21.87;11.50;;;;;;;;;;6338588;22;20262;-84
2022/02/09 06:48:31;;;;;;;21.13;11.63;;;;;;;;;;6339074;22;20210;-84
2022/02/09 06:51:06;;;;;;;23.10;11.80;;;;;;;;;;6339059;22;20165;-84
2022/02/09 06:53:38;;;;;;;24.40;12.17;;;;;;;;;;6338894;22;20178;-84
2022/02/09 06:56:05;;;;;;;19.50;11.93;;;;;;;;;;6339010;22;20172;-84
2022/02/09 06:58:55;;;;;;;22.70;11.93;;;;;;;;;;6339315;22;20682;-84
2022/02/09 07:01:24;;;;;;;22.37;11.77;;;;;;;;;;6338152;22;20243;-84
2022/02/09 07:03:51;;;;;;;21.20;11.77;;;;;;;;;;6338777;22;20937;-84
2022/02/09 07:06:19;;;;;;;21.37;12.07;;;;;;;;;;6337651;22;20728;-84
2022/02/09 07:08:46;;;;;;;21.63;11.87;;;;;;;;;;6338474;22;20203;-84
2022/02/09 07:11:13;;;;;;;24.43;12.40;;;;;;;;;;6338354;22;20642;-84
2022/02/09 07:13:40;;;;;;;22.80;12.13;;;;;;;;;;6338404;22;20268;-84
2022/02/09 07:16:07;;;;;;;24.73;12.57;;;;;;;;;;6338203;22;20199;-83
2022/02/09 07:18:37;;;;;;;24.00;12.53;;;;;;;;;;6338465;22;20630;-84
2022/02/09 07:21:08;;;;;;;23.40;12.53;;;;;;;;;;6338550;22;20253;-84
2022/02/09 07:23:41;;;;;;;22.07;11.80;;;;;;;;;;6338140;22;20283;-84
2022/02/09 07:26:12;;;;;;;20.63;11.63;;;;;;;;;;6338720;22;20534;-84
2022/02/09 07:28:40;;;;;;;22.70;11.37;;;;;;;;;;6338269;22;20642;-83
2022/02/09 07:31:08;;;;;;;25.50;12.17;;;;;;;;;;6338080;22;20665;-84
2022/02/09 07:33:37;;;;;;;22.67;11.03;;;;;;;;;;6338409;22;20326;-84
2022/02/09 07:36:04;;;;;;;22.17;12.40;;;;;;;;;;6338640;22;20251;-84
2022/02/09 07:38:31;;;;;;;20.90;11.77;;;;;;;;;;6338006;22;20173;-84
2022/02/09 07:41:00;;;;;;;22.27;11.87;;;;;;;;;;6338422;22;20225;-84
2022/02/09 07:43:38;;;;;;;24.07;12.73;;;;;;;;;;6338390;22;20263;-83
2022/02/09 07:46:38;;;;;;;23.67;12.50;;;;;;;;;;6338045;22;20197;-84
2022/02/09 07:49:10;;;;;;;21.40;12.23;;;;;;;;;;6338576;22;20173;-84
2022/02/09 07:51:42;;;;;;;21.97;12.33;;;;;;;;;;6338189;22;20179;-84
2022/02/09 07:54:10;;;;;;;23.97;12.40;;;;;;;;;;6338487;22;20238;-84
2022/02/09 07:56:38;;;;;;;23.00;11.63;;;;;;;;;;6337961;22;20172;-84
2022/02/09 07:59:06;;;;;;;23.80;12.23;;;;;;;;;;6337950;22;20203;-84
2022/02/09 08:01:33;;;;;;;21.90;11.93;;;;;;;;;;6338556;22;20169;-88
2022/02/09 08:04:00;;;;;;;26.23;12.30;;;;;;;;;;6312376;22;20169;-90
2022/02/09 08:06:29;;;;;;;20.20;11.53;;;;;;;;;;6339654;22;20219;-89
2022/02/09 08:09:00;;;;;;;20.80;11.50;;;;;;;;;;6339435;22;20183;-91
2022/02/09 08:11:32;;;;;;;21.50;11.77;;;;;;;;;;6340412;22;20247;-89
2022/02/09 08:31:00;;;;;;;20.83;11.97;;;;;;;;;;6274871;22;20604;-89
2022/02/09 08:33:27;;;;;;;22.23;13.07;;;;;;;;;;6275019;22;20243;-90
2022/02/09 08:35:57;;;;;;;23.00;12.37;;;;;;;;;;6275854;22;20177;-90
2022/02/09 08:38:29;;;;;;;21.20;11.63;;;;;;;;;;6275448;22;20220;-89
2022/02/09 08:40:57;;;;;;;24.50;12.30;;;;;;;;;;6275467;22;20173;-89
2022/02/09 08:43:25;;;;;;;24.03;12.63;;;;;;;;;;6275116;22;20199;-89
2022/02/09 08:45:52;;;;;;;22.57;12.40;;;;;;;;;;6275797;22;20236;-90
2022/02/09 08:48:21;;;;;;;21.33;11.97;;;;;;;;;;6274973;22;20247;-90
2022/02/09 08:50:48;;;;;;;25.73;11.90;;;;;;;;;;6274048;22;20204;-90
2022/02/09 08:53:16;;;;;;;22.50;11.93;;;;;;;;;;6274630;22;20181;-90
2022/02/09 08:55:50;;;;;;;21.53;11.33;;;;;;;;;;6249059;22;20683;-89
2022/02/09 08:58:20;;;;;;;19.73;11.10;;;;;;;;;;6277448;22;20271;-89
2022/02/09 09:00:48;;;;;;;23.77;12.30;;;;;;;;;;6279147;22;20176;-89
2022/02/09 09:03:19;;;;;;;20.13;11.17;;;;;;;;;;6276557;22;20180;-89
2022/02/09 09:06:03;;;;;;;23.07;11.30;;;;;;;;;;6291779;22;20169;-90
2022/02/09 09:08:44;;;;;;;20.27;11.70;;;;;;;;;;6342107;22;20200;-89
2022/02/09 09:11:45;;;;;;;21.43;11.73;;;;;;;;;;6343765;22;20201;-89
2022/02/09 09:17:26;;;;;;;22.40;11.57;;;;;;;;;;6339814;22;20172;-90
2022/02/09 10:00:21;;;;;;;20.63;12.13;;;;;;;;;;5027849;28;20215;-87
2022/02/09 10:02:26;;;;;;;23.27;12.80;;;;;;;;;;5027159;28;20196;-90
2022/02/09 10:33:00;;;;;;;22.93;12.33;;;;;;;;;;5068427;28;20246;-88
2022/02/09 10:35:32;;;;;;;22.97;11.90;;;;;;;;;;5068539;28;20187;-87
2022/02/09 10:38:02;;;;;;;21.80;12.17;;;;;;;;;;5068713;28;20266;-88
2022/02/09 10:40:36;;;;;;;24.77;12.87;;;;;;;;;;5068979;28;20767;-88
2022/02/09 10:43:04;;;;;;;21.27;12.10;;;;;;;;;;5068997;28;20854;-87
2022/02/09 10:45:34;;;;;;;22.77;12.67;;;;;;;;;;5055027;28;20200;-86
2022/02/09 10:48:02;;;;;;;26.13;13.30;;;;;;;;;;5055789;28;20621;-88
2022/02/09 10:50:31;;;;;;;30.27;14.53;;;;;;;;;;5055401;28;20242;-87
2022/02/09 10:53:00;;;;;;;26.33;13.50;;;;;;;;;;5055207;28;20312;-89
2022/02/09 10:55:34;;;;;;;24.67;14.23;;;;;;;;;;5054183;28;20226;-87
2022/02/09 10:58:02;;;;;;;24.47;13.80;;;;;;;;;;5039328;28;20199;-88
2022/02/09 11:00:29;;;;;;;27.20;14.43;;;;;;;;;;5037861;28;20243;-88
2022/02/09 11:02:57;;;;;;;24.13;14.43;;;;;;;;;;5036196;28;20204;-86
2022/02/09 11:05:24;;;;;;;26.10;15.00;;;;;;;;;;5034942;28;20228;-87
2022/02/09 11:07:52;;;;;;;22.70;12.87;;;;;;;;;;5042339;28;20235;-89
2022/02/09 11:10:19;;;;;;;21.80;12.90;;;;;;;;;;5054985;28;20204;-85
2022/02/09 11:12:49;;;;;;;28.13;15.47;;;;;;;;;;5042210;28;20306;-86
2022/02/09 11:15:18;;;;;;;32.97;16.53;;;;;;;;;;5054907;28;20200;-86
2022/02/09 11:17:47;;;;;;;41.93;18.23;;;;;;;;;;5054385;28;20196;-85
2022/02/09 11:20:15;;;;;;;39.90;18.27;;;;;;;;;;5054288;28;20249;-86
2022/02/09 11:22:43;;;;;;;36.93;18.37;;;;;;;;;;5054127;28;20223;-86
2022/02/09 11:25:13;;;;;;;37.33;19.27;;;;;;;;;;5054544;28;20188;-86
2022/02/09 11:27:48;;;;;;;36.80;18.57;;;;;;;;;;5054232;28;20192;-86
2022/02/09 11:30:25;;;;;;;37.90;17.53;;;;;;;;;;5054402;28;20199;-90
2022/02/09 11:33:01;;;;;;;34.17;17.60;;;;;;;;;;5051269;28;20742;-89
2022/02/09 11:35:33;;;;;;;43.03;20.17;;;;;;;;;;5035880;28;20606;-89
2022/02/09 11:38:15;;;;;;;42.30;19.93;;;;;;;;;;5042508;28;20211;-90
2022/02/09 11:40:51;;;;;;;39.20;20.00;;;;;;;;;;5048788;28;20234;-89
2022/02/09 11:43:39;;;;;;;42.53;20.17;;;;;;;;;;5039544;28;20218;-89
2022/02/09 11:46:25;;;;;;;37.43;18.97;;;;;;;;;;5034490;28;20206;-89
2022/02/09 11:52:11;;;;;;;45.20;21.43;;;;;;;;;;5026586;28;20246;-89
2022/02/09 11:54:54;;;;;;;47.30;24.37;;;;;;;;;;5034478;28;20201;-88
2022/02/09 11:58:05;;;;;;;47.90;24.53;;;;;;;;;;5033725;28;20254;-89
2022/02/09 12:00:34;;;;;;;47.30;21.83;;;;;;;;;;5034167;28;20225;-90
2022/02/09 12:08:53;;;;;;;50.73;23.30;;;;;;;;;;5033994;28;20200;-89
2022/02/09 12:11:37;;;;;;;50.00;22.40;;;;;;;;;;5035431;28;20230;-89
2022/02/09 12:14:18;;;;;;;46.83;22.63;;;;;;;;;;5034490;28;20238;-89
2022/02/09 12:16:49;;;;;;;55.43;24.83;;;;;;;;;;5036492;28;20208;-89
2022/02/09 12:19:27;;;;;;;53.47;24.17;;;;;;;;;;5034823;28;20233;-89
2022/02/09 12:21:59;;;;;;;55.70;25.37;;;;;;;;;;5033722;28;20264;-89
2022/02/09 12:24:28;;;;;;;53.10;25.07;;;;;;;;;;5033968;28;20214;-89
2022/02/09 12:26:59;;;;;;;50.83;24.47;;;;;;;;;;5034004;28;20224;-89
2022/02/09 12:29:30;;;;;;;51.60;23.90;;;;;;;;;;5033957;28;20237;-89
2022/02/09 12:31:58;;;;;;;48.13;23.97;;;;;;;;;;5033410;28;20231;-89
2022/02/09 12:34:28;;;;;;;48.03;23.93;;;;;;;;;;5050132;28;20235;-89
2022/02/09 12:36:55;;;;;;;51.77;23.20;;;;;;;;;;5054099;28;20341;-89
2022/02/09 12:39:24;;;;;;;46.50;23.40;;;;;;;;;;5054859;28;20272;-89
2022/02/09 12:41:53;;;;;;;52.30;24.57;;;;;;;;;;5053750;28;20221;-89
2022/02/09 12:44:23;;;;;;;48.97;24.03;;;;;;;;;;5053988;28;20208;-89
2022/02/09 12:46:51;;;;;;;53.57;24.73;;;;;;;;;;5055239;28;20210;-85
2022/02/09 12:49:19;;;;;;;52.27;25.07;;;;;;;;;;5052320;28;20222;-86
2022/02/09 12:51:50;;;;;;;47.20;23.07;;;;;;;;;;5052962;28;20193;-86
2022/02/09 12:54:18;;;;;;;43.10;21.57;;;;;;;;;;5052784;28;20314;-86
2022/02/09 12:56:46;;;;;;;43.67;22.43;;;;;;;;;;5053058;28;20262;-86
2022/02/09 12:59:14;;;;;;;47.27;22.47;;;;;;;;;;5052762;28;20635;-86
2022/02/09 13:01:43;;;;;;;45.20;23.07;;;;;;;;;;5053000;28;20240;-86
2022/02/09 13:04:10;;;;;;;50.90;23.80;;;;;;;;;;5052613;28;20635;-86
2022/02/09 13:06:38;;;;;;;44.77;22.70;;;;;;;;;;5052196;28;20724;-85
2022/02/09 13:09:06;;;;;;;46.00;22.80;;;;;;;;;;5052519;28;20732;-85
2022/02/09 13:11:35;;;;;;;47.50;22.57;;;;;;;;;;5052489;28;20225;-85
2022/02/09 13:14:08;;;;;;;43.83;22.23;;;;;;;;;;5052173;28;20281;-86
2022/02/09 13:16:50;;;;;;;45.27;23.33;;;;;;;;;;5052704;28;20214;-85
2022/02/09 13:25:37;;;;;;;47.87;22.03;;;;;;;;;;5052113;28;20304;-86
2022/02/09 14:11:08;;;;;;;49.47;23.27;;;;;;;;;;5036780;28;20229;-87
2022/02/09 14:14:00;;;;;;;45.60;22.90;;;;;;;;;;5055887;28;20228;-86
2022/02/09 14:16:55;;;;;;;48.93;23.63;;;;;;;;;;5063435;28;20195;-86
2022/02/09 14:23:43;;;;;;;43.43;22.70;;;;;;;;;;5056182;28;20212;-86
2022/02/09 14:52:58;;;;;;;46.33;23.47;;;;;;;;;;5061980;28;20207;-86
2022/02/09 14:55:43;;;;;;;41.43;21.70;;;;;;;;;;5080201;28;20316;-86
2022/02/09 14:58:12;;;;;;;42.13;22.30;;;;;;;;;;5077820;28;20199;-86
2022/02/09 15:00:52;;;;;;;33.27;18.83;;;;;;;;;;5070080;28;20230;-86
2022/02/09 15:03:40;;;;;;;31.03;17.50;;;;;;;;;;5068686;28;20211;-87
2022/02/09 15:08:57;;;;;;;35.10;20.07;;;;;;;;;;5053506;28;20201;-87
2022/02/09 15:11:31;;;;;;;32.93;17.90;;;;;;;;;;5060994;28;20248;-86
2022/02/09 15:14:10;;;;;;;27.63;15.17;;;;;;;;;;5062717;28;20249;-86
2022/02/09 15:16:47;;;;;;;28.33;16.03;;;;;;;;;;5064233;28;20188;-86
2022/02/09 15:19:27;;;;;;;26.50;15.47;;;;;;;;;;5042573;28;20206;-86
2022/02/09 15:24:37;;;;;;;41.07;21.60;;;;;;;;;;5057466;28;20196;-86
2022/02/09 15:27:04;;;;;;;40.80;20.77;;;;;;;;;;5056742;28;20207;-86
2022/02/09 15:29:32;;;;;;;42.47;24.27;;;;;;;;;;5074032;28;20199;-86
2022/02/09 15:32:03;;;;;;;43.13;23.70;;;;;;;;;;5056735;28;20200;-86
2022/02/09 15:34:36;;;;;;;41.33;22.87;;;;;;;;;;5055017;28;20225;-87
2022/02/09 15:37:11;;;;;;;39.93;23.20;;;;;;;;;;5054177;28;20580;-87
2022/02/09 15:39:42;;;;;;;44.83;22.97;;;;;;;;;;5061079;28;20203;-86
2022/02/09 15:42:28;;;;;;;41.60;22.63;;;;;;;;;;5054768;28;20263;-86
2022/02/09 15:56:20;;;;;;;47.47;23.23;;;;;;;;;;5061255;28;20245;-86
2022/02/09 15:59:14;;;;;;;48.83;25.20;;;;;;;;;;5039514;28;20239;-86
2022/02/09 16:10:13;;;;;;;52.40;25.80;;;;;;;;;;5057180;28;20200;-86
2022/02/09 16:23:52;;;;;;;52.80;27.63;;;;;;;;;;5072622;28;20210;-86
2022/02/09 16:35:19;;;;;;;43.50;22.37;;;;;;;;;;5022771;28;20211;-86
2022/02/09 16:37:52;;;;;;;45.87;21.13;;;;;;;;;;5018207;28;20219;-86
2022/02/09 16:48:32;;;;;;;46.30;22.23;;;;;;;;;;5009857;28;20589;-86
2022/02/09 16:51:02;;;;;;;42.13;20.73;;;;;;;;;;5010792;28;20675;-86
2022/02/09 16:53:46;;;;;;;41.80;21.27;;;;;;;;;;5014083;28;20292;-86
2022/02/09 16:56:37;;;;;;;40.80;19.90;;;;;;;;;;5010896;28;20247;-86
2022/02/09 17:21:05;;;;;;;39.17;19.60;;;;;;;;;;5030281;28;20241;-86
2022/02/09 17:23:32;;;;;;;38.97;19.47;;;;;;;;;;5030226;28;20615;-86
2022/02/09 17:25:59;;;;;;;39.13;19.50;;;;;;;;;;5028778;28;20279;-86
2022/02/09 17:28:28;;;;;;;39.63;19.97;;;;;;;;;;5030644;28;20254;-85
2022/02/09 17:31:04;;;;;;;35.70;19.23;;;;;;;;;;5032052;28;20254;-86
2022/02/09 17:36:21;;;;;;;33.30;18.10;;;;;;;;;;5011483;28;20236;-86
2022/02/09 17:38:54;;;;;;;32.97;17.80;;;;;;;;;;5022537;28;20203;-85
2022/02/09 17:58:08;;;;;;;33.07;17.83;;;;;;;;;;5128461;27;21063;-86
2022/02/09 18:03:19;;;;;;;32.50;18.77;;;;;;;;;;5105658;27;20205;-85
2022/02/09 18:05:48;;;;;;;35.17;19.10;;;;;;;;;;5124106;28;20940;-86
2022/02/09 18:08:22;;;;;;;35.70;19.67;;;;;;;;;;5110062;28;20669;-86
2022/02/09 18:10:59;;;;;;;40.13;19.00;;;;;;;;;;5108605;28;20209;-86
2022/02/09 18:13:57;;;;;;;38.47;20.70;;;;;;;;;;5108821;28;20226;-86
2022/02/09 18:30:19;;;;;;;41.53;23.13;;;;;;;;;;5066444;28;20594;-86
2022/02/09 18:33:07;;;;;;;41.10;23.37;;;;;;;;;;5052393;28;20749;-87
2022/02/09 18:44:04;;;;;;;46.73;26.17;;;;;;;;;;5048960;28;20220;-86
2022/02/09 18:46:41;;;;;;;49.07;25.87;;;;;;;;;;5046225;28;20200;-87
2022/02/09 19:00:15;;;;;;;57.40;28.73;;;;;;;;;;5056765;28;20214;-88
2022/02/09 19:02:56;;;;;;;54.73;28.67;;;;;;;;;;5057378;28;20264;-88
2022/02/09 19:05:30;;;;;;;52.73;28.17;;;;;;;;;;5056248;28;20625;-88
2022/02/09 19:08:16;;;;;;;58.90;29.10;;;;;;;;;;5083960;28;20209;-88
2022/02/09 19:28:00;;;;;;;46.63;25.33;;;;;;;;;;5090193;28;20247;-88
2022/02/09 19:47:17;;;;;;;43.93;24.77;;;;;;;;;;5038036;28;20248;-88
2022/02/09 19:50:09;;;;;;;44.57;23.83;;;;;;;;;;5032191;28;20622;-87
2022/02/09 19:53:09;;;;;;;43.63;23.00;;;;;;;;;;5028666;28;20223;-88
2022/02/09 19:55:38;;;;;;;43.40;23.63;;;;;;;;;;5047712;28;20631;-88
2022/02/09 19:58:05;;;;;;;43.33;23.70;;;;;;;;;;5047730;28;20228;-88
2022/02/09 20:00:36;;;;;;;47.90;22.77;;;;;;;;;;5037299;28;20246;-88
2022/02/09 20:03:05;;;;;;;48.67;25.80;;;;;;;;;;5050418;28;20211;-87
2022/02/09 20:05:33;;;;;;;42.53;23.50;;;;;;;;;;5052892;28;20674;-87
2022/02/09 20:08:04;;;;;;;44.17;23.80;;;;;;;;;;5030057;28;20209;-88
2022/02/09 20:10:32;;;;;;;48.00;24.47;;;;;;;;;;5050600;28;20691;-87
2022/02/09 20:13:00;;;;;;;44.63;24.00;;;;;;;;;;5073448;28;20717;-87
2022/02/09 20:15:27;;;;;;;48.53;25.07;;;;;;;;;;5073854;28;20207;-88
2022/02/09 20:17:55;;;;;;;48.97;26.80;;;;;;;;;;5073064;28;20765;-88
2022/02/09 20:20:26;;;;;;;50.90;27.50;;;;;;;;;;5072576;28;20191;-88
2022/02/09 20:22:55;;;;;;;48.83;27.27;;;;;;;;;;5082233;28;20210;-88
2022/02/09 20:25:25;;;;;;;53.53;28.10;;;;;;;;;;5080117;28;20401;-88
2022/02/09 20:27:54;;;;;;;49.90;27.40;;;;;;;;;;5082112;28;20203;-88
2022/02/09 20:30:25;;;;;;;54.57;28.30;;;;;;;;;;5076522;28;20213;-88
2022/02/09 20:32:56;;;;;;;51.23;27.87;;;;;;;;;;5073597;28;20654;-88
2022/02/09 20:35:24;;;;;;;51.63;27.30;;;;;;;;;;5073675;28;20214;-88
2022/02/09 20:37:54;;;;;;;45.77;25.27;;;;;;;;;;5072551;28;20659;-88
2022/02/09 20:40:26;;;;;;;43.00;25.53;;;;;;;;;;5072742;28;20204;-88
2022/02/09 20:42:57;;;;;;;45.40;26.00;;;;;;;;;;5073253;28;20215;-88
2022/02/09 20:45:30;;;;;;;46.07;25.87;;;;;;;;;;5078789;28;20202;-88
2022/02/09 20:48:01;;;;;;;43.53;26.10;;;;;;;;;;5075314;28;20202;-88
2022/02/09 20:50:29;;;;;;;44.00;25.10;;;;;;;;;;5092447;28;20197;-88
2022/02/09 20:52:57;;;;;;;42.43;24.70;;;;;;;;;;5076979;28;20215;-88
2022/02/09 20:55:26;;;;;;;43.60;24.50;;;;;;;;;;5072752;28;20214;-88
2022/02/09 20:57:55;;;;;;;43.93;25.13;;;;;;;;;;5087462;28;20257;-88
2022/02/09 21:00:29;;;;;;;43.93;25.67;;;;;;;;;;5077723;28;20211;-88
2022/02/09 21:03:05;;;;;;;43.20;26.03;;;;;;;;;;5084596;28;20217;-88
2022/02/09 21:05:40;;;;;;;43.07;25.47;;;;;;;;;;5085124;28;20208;-88
2022/02/09 21:08:26;;;;;;;46.70;27.17;;;;;;;;;;5075055;28;20205;-88
2022/02/09 21:11:03;;;;;;;47.43;26.40;;;;;;;;;;5074266;28;20304;-88
2022/02/09 21:13:42;;;;;;;44.13;26.80;;;;;;;;;;5067921;28;20194;-88
2022/02/09 21:16:41;;;;;;;41.80;26.03;;;;;;;;;;5083869;28;20255;-88
2022/02/09 21:33:20;;;;;;;39.90;25.63;;;;;;;;;;5078371;28;20626;-88
2022/02/09 21:52:52;;;;;;;39.37;25.40;;;;;;;;;;5072492;28;20693;-88
2022/02/09 21:55:29;;;;;;;44.43;25.63;;;;;;;;;;5073117;28;20281;-88
2022/02/09 21:58:03;;;;;;;42.67;25.53;;;;;;;;;;5072377;28;20734;-88
2022/02/09 22:00:42;;;;;;;41.83;25.23;;;;;;;;;;5079229;28;20206;-87
2022/02/09 22:19:12;;;;;;;44.60;28.60;;;;;;;;;;5082133;28;20279;-88
2022/02/09 22:19:58;;;;;;;44.70;27.80;;;;;;;;;;5080652;28;20229;-88
2022/02/09 22:22:40;;;;;;;49.47;30.23;;;;;;;;;;5077116;28;20664;-88
2022/02/09 22:27:55;;;;;;;42.47;27.00;;;;;;;;;;5095599;28;20203;-88
2022/02/09 22:50:01;;;;;;;40.93;22.63;;;;;;;;;;5096068;28;20201;-88
2022/02/09 22:55:20;;;;;;;38.77;24.13;;;;;;;;;;5096114;28;20198;-88
2022/02/09 22:57:53;;;;;;;41.80;25.50;;;;;;;;;;5087475;28;20237;-88
2022/02/09 23:00:41;;;;;;;41.33;24.43;;;;;;;;;;5084786;28;20574;-88
2022/02/09 23:03:11;;;;;;;39.47;24.90;;;;;;;;;;5078150;28;20276;-88
2022/02/09 23:05:51;;;;;;;40.93;25.13;;;;;;;;;;5090972;28;20220;-88
2022/02/09 23:09:08;;;;;;;45.37;24.43;;;;;;;;;;5093362;28;20281;-88
